sensor_id;sensor_type;location;lat;lon;timestamp;temperature;humidity
36322;DHT22;23564;48.290;11.460;2023-04-24T00:01:13;11.20;1.80
36322;DHT22;23564;48.290;11.460;2023-04-24T00:03:40;11.20;2.80
36322;DHT22;23564;48.290;11.460;2023-04-24T00:06:06;11.20;2.20
36322;DHT22;23564;48.290;11.460;2023-04-24T00:08:36;11.20;1.50
36322;DHT22;23564;48.290;11.460;2023-04-24T00:11:02;11.20;2.30
36322;DHT22;23564;48.290;11.460;2023-04-24T00:13:28;11.20;2.90
36322;DHT22;23564;48.290;11.460;2023-04-24T00:15:54;11.20;2.90
36322;DHT22;23564;48.290;11.460;2023-04-24T00:18:20;11.20;2.90
36322;DHT22;23564;48.290;11.460;2023-04-24T00:20:46;11.20;5.70
36322;DHT22;23564;48.290;11.460;2023-04-24T00:23:12;11.20;4.60
36322;DHT22;23564;48.290;11.460;2023-04-24T00:25:38;11.20;4.20
36322;DHT22;23564;48.290;11.460;2023-04-24T00:28:04;11.20;4.40
36322;DHT22;23564;48.290;11.460;2023-04-24T00:30:29;11.20;5.00
36322;DHT22;23564;48.290;11.460;2023-04-24T00:32:55;11.10;4.50
36322;DHT22;23564;48.290;11.460;2023-04-24T00:35:21;11.10;2.60
36322;DHT22;23564;48.290;11.460;2023-04-24T00:37:46;11.10;3.30
36322;DHT22;23564;48.290;11.460;2023-04-24T00:40:12;11.10;2.00
36322;DHT22;23564;48.290;11.460;2023-04-24T00:42:39;11.10;2.80
36322;DHT22;23564;48.290;11.460;2023-04-24T00:45:05;11.10;2.50
36322;DHT22;23564;48.290;11.460;2023-04-24T00:47:33;11.00;7.30
36322;DHT22;23564;48.290;11.460;2023-04-24T00:50:00;11.00;7.00
36322;DHT22;23564;48.290;11.460;2023-04-24T00:52:26;11.00;4.80
36322;DHT22;23564;48.290;11.460;2023-04-24T00:54:51;11.00;5.70
36322;DHT22;23564;48.290;11.460;2023-04-24T00:57:17;10.90;5.70
36322;DHT22;23564;48.290;11.460;2023-04-24T00:59:43;10.90;5.00
36322;DHT22;23564;48.290;11.460;2023-04-24T01:02:10;10.90;6.70
36322;DHT22;23564;48.290;11.460;2023-04-24T01:04:36;10.90;6.20
36322;DHT22;23564;48.290;11.460;2023-04-24T01:07:02;11.00;5.90
36322;DHT22;23564;48.290;11.460;2023-04-24T01:09:28;10.90;4.90
36322;DHT22;23564;48.290;11.460;2023-04-24T01:11:54;10.90;6.70
36322;DHT22;23564;48.290;11.460;2023-04-24T01:14:20;10.80;2.40
36322;DHT22;23564;48.290;11.460;2023-04-24T01:16:46;10.70;4.70
36322;DHT22;23564;48.290;11.460;2023-04-24T01:19:13;10.80;7.60
36322;DHT22;23564;48.290;11.460;2023-04-24T01:21:40;10.80;5.70
36322;DHT22;23564;48.290;11.460;2023-04-24T01:24:06;10.80;6.70
36322;DHT22;23564;48.290;11.460;2023-04-24T01:26:33;10.70;5.60
36322;DHT22;23564;48.290;11.460;2023-04-24T01:28:59;10.70;4.40
36322;DHT22;23564;48.290;11.460;2023-04-24T01:31:24;10.70;1.00
36322;DHT22;23564;48.290;11.460;2023-04-24T01:33:51;10.60;1.00
36322;DHT22;23564;48.290;11.460;2023-04-24T01:36:18;10.60;1.00
36322;DHT22;23564;48.290;11.460;2023-04-24T01:38:44;10.60;1.00
36322;DHT22;23564;48.290;11.460;2023-04-24T01:41:10;10.60;1.00
36322;DHT22;23564;48.290;11.460;2023-04-24T01:43:36;10.60;1.00
36322;DHT22;23564;48.290;11.460;2023-04-24T01:46:01;10.60;1.00
36322;DHT22;23564;48.290;11.460;2023-04-24T01:48:27;10.60;1.00
36322;DHT22;23564;48.290;11.460;2023-04-24T01:50:53;10.60;1.00
36322;DHT22;23564;48.290;11.460;2023-04-24T01:53:19;10.50;1.00
36322;DHT22;23564;48.290;11.460;2023-04-24T01:55:45;10.50;1.00
36322;DHT22;23564;48.290;11.460;2023-04-24T01:58:10;10.50;1.00
36322;DHT22;23564;48.290;11.460;2023-04-24T02:00:36;10.50;1.00
36322;DHT22;23564;48.290;11.460;2023-04-24T02:03:01;10.50;1.00
36322;DHT22;23564;48.290;11.460;2023-04-24T02:05:28;10.50;1.00
36322;DHT22;23564;48.290;11.460;2023-04-24T02:07:54;10.50;1.00
36322;DHT22;23564;48.290;11.460;2023-04-24T02:10:19;10.50;1.00
36322;DHT22;23564;48.290;11.460;2023-04-24T02:12:45;10.50;1.00
36322;DHT22;23564;48.290;11.460;2023-04-24T02:15:11;10.40;1.00
36322;DHT22;23564;48.290;11.460;2023-04-24T02:17:37;10.40;1.00
36322;DHT22;23564;48.290;11.460;2023-04-24T02:20:04;10.40;1.00
36322;DHT22;23564;48.290;11.460;2023-04-24T02:22:30;10.40;1.00
36322;DHT22;23564;48.290;11.460;2023-04-24T02:24:55;10.40;1.00
36322;DHT22;23564;48.290;11.460;2023-04-24T02:27:21;10.40;1.00
36322;DHT22;23564;48.290;11.460;2023-04-24T02:29:46;10.40;1.00
36322;DHT22;23564;48.290;11.460;2023-04-24T02:32:12;10.40;1.00
36322;DHT22;23564;48.290;11.460;2023-04-24T02:34:38;10.50;1.00
36322;DHT22;23564;48.290;11.460;2023-04-24T02:37:04;10.40;1.00
36322;DHT22;23564;48.290;11.460;2023-04-24T02:39:29;10.50;1.00
36322;DHT22;23564;48.290;11.460;2023-04-24T02:41:55;10.40;1.00
36322;DHT22;23564;48.290;11.460;2023-04-24T02:44:20;10.40;1.00
36322;DHT22;23564;48.290;11.460;2023-04-24T02:46:47;10.40;1.00
36322;DHT22;23564;48.290;11.460;2023-04-24T02:49:12;10.40;1.00
36322;DHT22;23564;48.290;11.460;2023-04-24T02:51:38;10.40;1.00
36322;DHT22;23564;48.290;11.460;2023-04-24T02:54:07;10.40;1.00
36322;DHT22;23564;48.290;11.460;2023-04-24T02:56:33;10.40;1.00
36322;DHT22;23564;48.290;11.460;2023-04-24T02:58:58;10.40;1.00
36322;DHT22;23564;48.290;11.460;2023-04-24T03:01:24;10.40;1.00
36322;DHT22;23564;48.290;11.460;2023-04-24T03:03:50;10.40;1.00
36322;DHT22;23564;48.290;11.460;2023-04-24T03:06:16;10.40;1.00
36322;DHT22;23564;48.290;11.460;2023-04-24T03:08:41;10.40;1.00
36322;DHT22;23564;48.290;11.460;2023-04-24T03:11:07;10.30;1.00
36322;DHT22;23564;48.290;11.460;2023-04-24T03:13:32;10.30;1.00
36322;DHT22;23564;48.290;11.460;2023-04-24T03:15:58;10.30;1.00
36322;DHT22;23564;48.290;11.460;2023-04-24T03:18:23;10.30;1.00
36322;DHT22;23564;48.290;11.460;2023-04-24T03:20:49;10.30;1.00
36322;DHT22;23564;48.290;11.460;2023-04-24T03:23:15;10.20;1.00
36322;DHT22;23564;48.290;11.460;2023-04-24T03:25:41;10.20;1.00
36322;DHT22;23564;48.290;11.460;2023-04-24T03:28:08;10.20;1.00
36322;DHT22;23564;48.290;11.460;2023-04-24T03:30:33;10.20;2.90
36322;DHT22;23564;48.290;11.460;2023-04-24T03:32:59;10.20;2.20
36322;DHT22;23564;48.290;11.460;2023-04-24T03:35:25;10.20;3.60
36322;DHT22;23564;48.290;11.460;2023-04-24T03:37:50;10.20;4.10
36322;DHT22;23564;48.290;11.460;2023-04-24T03:40:16;10.20;5.90
36322;DHT22;23564;48.290;11.460;2023-04-24T03:42:41;10.20;7.00
36322;DHT22;23564;48.290;11.460;2023-04-24T03:45:07;10.20;5.80
36322;DHT22;23564;48.290;11.460;2023-04-24T03:47:33;10.20;2.70
36322;DHT22;23564;48.290;11.460;2023-04-24T03:49:59;10.20;4.60
36322;DHT22;23564;48.290;11.460;2023-04-24T03:52:24;10.20;4.30
36322;DHT22;23564;48.290;11.460;2023-04-24T03:54:50;10.20;6.60
36322;DHT22;23564;48.290;11.460;2023-04-24T03:57:16;10.20;7.10
36322;DHT22;23564;48.290;11.460;2023-04-24T03:59:41;10.20;7.10
36322;DHT22;23564;48.290;11.460;2023-04-24T04:02:07;10.20;4.50
36322;DHT22;23564;48.290;11.460;2023-04-24T04:04:32;10.20;3.30
36322;DHT22;23564;48.290;11.460;2023-04-24T04:06:58;10.20;7.00
36322;DHT22;23564;48.290;11.460;2023-04-24T04:09:26;10.20;7.10
36322;DHT22;23564;48.290;11.460;2023-04-24T04:11:52;10.20;4.60
36322;DHT22;23564;48.290;11.460;2023-04-24T04:14:18;10.20;4.20
36322;DHT22;23564;48.290;11.460;2023-04-24T04:16:43;10.30;1.00
36322;DHT22;23564;48.290;11.460;2023-04-24T04:19:09;10.20;1.00
36322;DHT22;23564;48.290;11.460;2023-04-24T04:21:34;10.20;1.40
36322;DHT22;23564;48.290;11.460;2023-04-24T04:24:00;10.20;1.00
36322;DHT22;23564;48.290;11.460;2023-04-24T04:26:25;10.20;2.60
36322;DHT22;23564;48.290;11.460;2023-04-24T04:28:52;10.20;1.40
36322;DHT22;23564;48.290;11.460;2023-04-24T04:31:22;10.20;1.00
36322;DHT22;23564;48.290;11.460;2023-04-24T04:33:48;10.20;1.70
36322;DHT22;23564;48.290;11.460;2023-04-24T04:36:14;10.20;4.00
36322;DHT22;23564;48.290;11.460;2023-04-24T04:38:39;10.20;1.40
36322;DHT22;23564;48.290;11.460;2023-04-24T04:41:05;10.20;1.40
36322;DHT22;23564;48.290;11.460;2023-04-24T04:43:32;10.20;2.40
36322;DHT22;23564;48.290;11.460;2023-04-24T04:45:59;10.10;2.70
36322;DHT22;23564;48.290;11.460;2023-04-24T04:48:26;10.10;1.00
36322;DHT22;23564;48.290;11.460;2023-04-24T04:50:52;10.10;2.40
36322;DHT22;23564;48.290;11.460;2023-04-24T04:53:18;10.10;1.00
36322;DHT22;23564;48.290;11.460;2023-04-24T04:55:43;10.10;1.60
36322;DHT22;23564;48.290;11.460;2023-04-24T04:58:09;10.10;2.40
36322;DHT22;23564;48.290;11.460;2023-04-24T05:00:35;10.10;1.30
36322;DHT22;23564;48.290;11.460;2023-04-24T05:03:03;10.10;1.00
36322;DHT22;23564;48.290;11.460;2023-04-24T05:05:29;10.10;1.00
36322;DHT22;23564;48.290;11.460;2023-04-24T05:07:54;10.10;2.50
36322;DHT22;23564;48.290;11.460;2023-04-24T05:10:20;10.10;4.30
36322;DHT22;23564;48.290;11.460;2023-04-24T05:12:45;10.10;1.00
36322;DHT22;23564;48.290;11.460;2023-04-24T05:15:11;10.00;1.00
36322;DHT22;23564;48.290;11.460;2023-04-24T05:17:37;10.00;1.00
36322;DHT22;23564;48.290;11.460;2023-04-24T05:20:03;10.00;1.00
36322;DHT22;23564;48.290;11.460;2023-04-24T05:22:31;10.00;1.00
36322;DHT22;23564;48.290;11.460;2023-04-24T05:24:56;10.00;1.00
36322;DHT22;23564;48.290;11.460;2023-04-24T05:27:22;10.10;1.00
36322;DHT22;23564;48.290;11.460;2023-04-24T05:29:48;10.20;1.80
36322;DHT22;23564;48.290;11.460;2023-04-24T05:32:13;10.30;1.00
36322;DHT22;23564;48.290;11.460;2023-04-24T05:34:39;10.30;1.00
36322;DHT22;23564;48.290;11.460;2023-04-24T05:37:04;10.40;1.00
36322;DHT22;23564;48.290;11.460;2023-04-24T05:39:33;10.40;1.00
36322;DHT22;23564;48.290;11.460;2023-04-24T05:42:00;10.50;1.00
36322;DHT22;23564;48.290;11.460;2023-04-24T05:44:26;10.60;1.00
36322;DHT22;23564;48.290;11.460;2023-04-24T05:46:52;10.60;1.00
36322;DHT22;23564;48.290;11.460;2023-04-24T05:49:17;10.60;1.00
36322;DHT22;23564;48.290;11.460;2023-04-24T05:51:43;10.70;1.00
36322;DHT22;23564;48.290;11.460;2023-04-24T05:54:08;10.70;1.00
36322;DHT22;23564;48.290;11.460;2023-04-24T05:56:35;10.80;1.00
36322;DHT22;23564;48.290;11.460;2023-04-24T05:59:01;10.80;1.00
36322;DHT22;23564;48.290;11.460;2023-04-24T06:01:27;10.80;1.00
36322;DHT22;23564;48.290;11.460;2023-04-24T06:03:52;10.80;1.00
36322;DHT22;23564;48.290;11.460;2023-04-24T06:06:18;10.90;1.00
36322;DHT22;23564;48.290;11.460;2023-04-24T06:08:44;10.90;1.00
36322;DHT22;23564;48.290;11.460;2023-04-24T06:11:10;11.00;1.00
36322;DHT22;23564;48.290;11.460;2023-04-24T06:13:36;11.10;1.00
36322;DHT22;23564;48.290;11.460;2023-04-24T06:16:01;11.20;1.00
36322;DHT22;23564;48.290;11.460;2023-04-24T06:18:27;11.30;1.00
36322;DHT22;23564;48.290;11.460;2023-04-24T06:20:53;11.40;1.00
36322;DHT22;23564;48.290;11.460;2023-04-24T06:23:18;11.40;1.00
36322;DHT22;23564;48.290;11.460;2023-04-24T06:25:44;11.40;1.00
36322;DHT22;23564;48.290;11.460;2023-04-24T06:28:09;11.40;1.00
36322;DHT22;23564;48.290;11.460;2023-04-24T06:30:35;11.50;1.00
36322;DHT22;23564;48.290;11.460;2023-04-24T06:33:00;11.50;1.00
36322;DHT22;23564;48.290;11.460;2023-04-24T06:35:26;11.50;1.00
36322;DHT22;23564;48.290;11.460;2023-04-24T06:37:51;11.50;1.00
36322;DHT22;23564;48.290;11.460;2023-04-24T06:40:17;11.50;1.00
36322;DHT22;23564;48.290;11.460;2023-04-24T06:42:44;11.40;1.00
36322;DHT22;23564;48.290;11.460;2023-04-24T06:45:09;11.40;99.90
36322;DHT22;23564;48.290;11.460;2023-04-24T06:47:36;11.40;1.00
36322;DHT22;23564;48.290;11.460;2023-04-24T06:50:01;11.50;1.00
36322;DHT22;23564;48.290;11.460;2023-04-24T06:52:27;11.40;99.90
36322;DHT22;23564;48.290;11.460;2023-04-24T06:54:52;11.50;1.00
36322;DHT22;23564;48.290;11.460;2023-04-24T06:57:24;11.50;99.90
36322;DHT22;23564;48.290;11.460;2023-04-24T06:59:50;11.50;99.90
36322;DHT22;23564;48.290;11.460;2023-04-24T07:02:16;11.60;1.00
36322;DHT22;23564;48.290;11.460;2023-04-24T07:04:41;11.70;99.90
36322;DHT22;23564;48.290;11.460;2023-04-24T07:07:07;11.80;99.90
36322;DHT22;23564;48.290;11.460;2023-04-24T07:09:34;11.90;99.90
36322;DHT22;23564;48.290;11.460;2023-04-24T07:12:04;12.00;99.90
36322;DHT22;23564;48.290;11.460;2023-04-24T07:14:29;12.00;99.90
36322;DHT22;23564;48.290;11.460;2023-04-24T07:16:55;12.00;99.90
36322;DHT22;23564;48.290;11.460;2023-04-24T07:19:22;12.10;99.90
36322;DHT22;23564;48.290;11.460;2023-04-24T07:21:47;12.20;99.90
36322;DHT22;23564;48.290;11.460;2023-04-24T07:24:13;12.30;99.90
36322;DHT22;23564;48.290;11.460;2023-04-24T07:26:39;12.40;1.00
36322;DHT22;23564;48.290;11.460;2023-04-24T07:29:05;12.30;1.00
36322;DHT22;23564;48.290;11.460;2023-04-24T07:31:31;12.30;1.00
36322;DHT22;23564;48.290;11.460;2023-04-24T07:33:57;12.20;1.00
36322;DHT22;23564;48.290;11.460;2023-04-24T07:36:24;12.10;99.90
36322;DHT22;23564;48.290;11.460;2023-04-24T07:38:51;12.00;1.00
36322;DHT22;23564;48.290;11.460;2023-04-24T07:41:16;11.90;49.70
36322;DHT22;23564;48.290;11.460;2023-04-24T07:43:42;11.80;99.90
36322;DHT22;23564;48.290;11.460;2023-04-24T07:46:10;11.70;99.90
36322;DHT22;23564;48.290;11.460;2023-04-24T07:48:36;11.70;99.90
36322;DHT22;23564;48.290;11.460;2023-04-24T07:51:02;11.70;99.90
36322;DHT22;23564;48.290;11.460;2023-04-24T07:53:27;11.60;1.00
36322;DHT22;23564;48.290;11.460;2023-04-24T07:55:55;11.60;22.10
36322;DHT22;23564;48.290;11.460;2023-04-24T07:58:20;11.50;31.50
36322;DHT22;23564;48.290;11.460;2023-04-24T08:00:46;11.40;1.00
36322;DHT22;23564;48.290;11.460;2023-04-24T08:03:12;11.40;99.90
36322;DHT22;23564;48.290;11.460;2023-04-24T08:05:38;11.40;99.90
36322;DHT22;23564;48.290;11.460;2023-04-24T08:08:04;11.50;99.90
36322;DHT22;23564;48.290;11.460;2023-04-24T08:10:30;11.50;79.30
36322;DHT22;23564;48.290;11.460;2023-04-24T08:12:55;11.50;63.10
36322;DHT22;23564;48.290;11.460;2023-04-24T08:15:21;11.50;81.70
36322;DHT22;23564;48.290;11.460;2023-04-24T08:17:46;11.50;1.00
36322;DHT22;23564;48.290;11.460;2023-04-24T08:20:12;11.50;64.00
36322;DHT22;23564;48.290;11.460;2023-04-24T08:22:42;11.60;1.00
36322;DHT22;23564;48.290;11.460;2023-04-24T08:25:09;11.50;26.90
36322;DHT22;23564;48.290;11.460;2023-04-24T08:27:34;11.50;1.00
36322;DHT22;23564;48.290;11.460;2023-04-24T08:30:02;11.50;87.20
36322;DHT22;23564;48.290;11.460;2023-04-24T08:32:28;11.30;72.10
36322;DHT22;23564;48.290;11.460;2023-04-24T08:34:57;11.20;1.00
36322;DHT22;23564;48.290;11.460;2023-04-24T08:37:23;11.10;99.90
36322;DHT22;23564;48.290;11.460;2023-04-24T08:39:50;11.10;99.90
36322;DHT22;23564;48.290;11.460;2023-04-24T08:42:17;11.10;99.90
36322;DHT22;23564;48.290;11.460;2023-04-24T08:44:43;11.10;99.90
36322;DHT22;23564;48.290;11.460;2023-04-24T08:47:10;11.20;23.20
36322;DHT22;23564;48.290;11.460;2023-04-24T08:49:37;11.40;99.90
36322;DHT22;23564;48.290;11.460;2023-04-24T08:52:03;11.50;1.00
36322;DHT22;23564;48.290;11.460;2023-04-24T08:54:30;11.60;1.00
36322;DHT22;23564;48.290;11.460;2023-04-24T08:56:59;11.70;99.90
36322;DHT22;23564;48.290;11.460;2023-04-24T08:59:27;11.80;99.90
36322;DHT22;23564;48.290;11.460;2023-04-24T09:01:53;11.90;99.90
36322;DHT22;23564;48.290;11.460;2023-04-24T09:04:20;12.10;99.90
36322;DHT22;23564;48.290;11.460;2023-04-24T09:06:48;12.20;99.90
36322;DHT22;23564;48.290;11.460;2023-04-24T09:09:16;12.30;1.00
36322;DHT22;23564;48.290;11.460;2023-04-24T09:11:41;12.40;51.10
36322;DHT22;23564;48.290;11.460;2023-04-24T09:14:09;12.60;99.90
36322;DHT22;23564;48.290;11.460;2023-04-24T09:16:35;12.70;99.90
36322;DHT22;23564;48.290;11.460;2023-04-24T09:19:01;12.70;99.90
36322;DHT22;23564;48.290;11.460;2023-04-24T09:21:32;12.70;99.90
36322;DHT22;23564;48.290;11.460;2023-04-24T09:24:07;12.70;99.90
36322;DHT22;23564;48.290;11.460;2023-04-24T09:26:35;12.70;1.00
36322;DHT22;23564;48.290;11.460;2023-04-24T09:29:01;12.50;1.00
36322;DHT22;23564;48.290;11.460;2023-04-24T09:31:28;12.40;99.90
36322;DHT22;23564;48.290;11.460;2023-04-24T09:34:04;12.40;1.00
36322;DHT22;23564;48.290;11.460;2023-04-24T09:36:34;12.50;1.00
36322;DHT22;23564;48.290;11.460;2023-04-24T09:39:04;12.60;1.00
36322;DHT22;23564;48.290;11.460;2023-04-24T09:41:32;12.70;99.90
36322;DHT22;23564;48.290;11.460;2023-04-24T09:44:11;12.80;99.90
36322;DHT22;23564;48.290;11.460;2023-04-24T09:46:37;12.90;1.00
36322;DHT22;23564;48.290;11.460;2023-04-24T09:49:09;13.00;99.90
36322;DHT22;23564;48.290;11.460;2023-04-24T09:51:36;13.00;99.90
36322;DHT22;23564;48.290;11.460;2023-04-24T09:54:04;13.20;99.90
36322;DHT22;23564;48.290;11.460;2023-04-24T09:56:33;13.40;99.90
36322;DHT22;23564;48.290;11.460;2023-04-24T09:59:06;13.60;99.90
36322;DHT22;23564;48.290;11.460;2023-04-24T10:01:33;13.50;99.90
36322;DHT22;23564;48.290;11.460;2023-04-24T10:03:59;13.50;99.90
36322;DHT22;23564;48.290;11.460;2023-04-24T10:06:33;13.30;99.90
36322;DHT22;23564;48.290;11.460;2023-04-24T10:08:59;13.30;99.90
36322;DHT22;23564;48.290;11.460;2023-04-24T10:11:28;13.20;90.50
36322;DHT22;23564;48.290;11.460;2023-04-24T10:13:55;13.10;99.90
36322;DHT22;23564;48.290;11.460;2023-04-24T10:16:21;13.20;99.90
36322;DHT22;23564;48.290;11.460;2023-04-24T10:18:48;13.20;99.90
36322;DHT22;23564;48.290;11.460;2023-04-24T10:21:15;13.20;99.90
36322;DHT22;23564;48.290;11.460;2023-04-24T10:23:42;13.30;99.90
36322;DHT22;23564;48.290;11.460;2023-04-24T10:26:12;13.50;99.90
36322;DHT22;23564;48.290;11.460;2023-04-24T10:28:44;13.80;99.90
36322;DHT22;23564;48.290;11.460;2023-04-24T10:31:11;14.00;99.90
36322;DHT22;23564;48.290;11.460;2023-04-24T10:33:38;14.20;99.90
36322;DHT22;23564;48.290;11.460;2023-04-24T10:36:07;14.20;63.60
36322;DHT22;23564;48.290;11.460;2023-04-24T10:38:34;14.10;48.30
36322;DHT22;23564;48.290;11.460;2023-04-24T10:41:08;14.10;67.20
36322;DHT22;23564;48.290;11.460;2023-04-24T10:43:35;14.10;1.00
36322;DHT22;23564;48.290;11.460;2023-04-24T10:46:06;14.20;86.50
36322;DHT22;23564;48.290;11.460;2023-04-24T10:48:33;14.20;99.90
36322;DHT22;23564;48.290;11.460;2023-04-24T10:50:59;14.30;95.80
36322;DHT22;23564;48.290;11.460;2023-04-24T10:53:28;14.00;95.30
36322;DHT22;23564;48.290;11.460;2023-04-24T10:56:06;13.60;99.90
36322;DHT22;23564;48.290;11.460;2023-04-24T10:58:43;13.20;73.60
36322;DHT22;23564;48.290;11.460;2023-04-24T11:04:02;12.80;99.90
36322;DHT22;23564;48.290;11.460;2023-04-24T11:06:37;12.60;99.90
36322;DHT22;23564;48.290;11.460;2023-04-24T11:09:08;12.40;99.90
36322;DHT22;23564;48.290;11.460;2023-04-24T11:11:35;12.30;99.90
36322;DHT22;23564;48.290;11.460;2023-04-24T11:14:05;12.10;99.90
36322;DHT22;23564;48.290;11.460;2023-04-24T11:16:44;11.90;1.00
36322;DHT22;23564;48.290;11.460;2023-04-24T11:19:17;11.90;1.00
36322;DHT22;23564;48.290;11.460;2023-04-24T11:21:46;11.70;99.90
36322;DHT22;23564;48.290;11.460;2023-04-24T11:24:28;11.60;99.90
36322;DHT22;23564;48.290;11.460;2023-04-24T11:26:59;11.40;96.80
36322;DHT22;23564;48.290;11.460;2023-04-24T11:32:26;11.40;99.90
36322;DHT22;23564;48.290;11.460;2023-04-24T11:35:13;11.50;99.90
36322;DHT22;23564;48.290;11.460;2023-04-24T11:37:41;11.60;1.00
36322;DHT22;23564;48.290;11.460;2023-04-24T11:40:09;11.70;99.90
36322;DHT22;23564;48.290;11.460;2023-04-24T11:42:40;11.80;99.90
36322;DHT22;23564;48.290;11.460;2023-04-24T11:45:10;12.10;99.90
36322;DHT22;23564;48.290;11.460;2023-04-24T11:47:36;12.30;99.90
36322;DHT22;23564;48.290;11.460;2023-04-24T11:50:03;12.50;99.90
36322;DHT22;23564;48.290;11.460;2023-04-24T11:52:30;12.70;99.90
36322;DHT22;23564;48.290;11.460;2023-04-24T11:54:55;12.80;99.90
36322;DHT22;23564;48.290;11.460;2023-04-24T11:57:23;12.80;99.90
36322;DHT22;23564;48.290;11.460;2023-04-24T11:59:49;13.00;53.50
36322;DHT22;23564;48.290;11.460;2023-04-24T12:02:24;12.90;1.00
36322;DHT22;23564;48.290;11.460;2023-04-24T12:04:51;12.90;14.30
36322;DHT22;23564;48.290;11.460;2023-04-24T12:07:16;13.10;1.00
36322;DHT22;23564;48.290;11.460;2023-04-24T12:09:43;13.10;1.00
36322;DHT22;23564;48.290;11.460;2023-04-24T12:12:10;13.40;1.00
36322;DHT22;23564;48.290;11.460;2023-04-24T12:14:49;13.50;99.90
36322;DHT22;23564;48.290;11.460;2023-04-24T12:17:16;13.60;99.90
36322;DHT22;23564;48.290;11.460;2023-04-24T12:19:46;13.60;99.90
36322;DHT22;23564;48.290;11.460;2023-04-24T12:22:12;13.70;1.00
36322;DHT22;23564;48.290;11.460;2023-04-24T12:24:56;13.60;99.90
36322;DHT22;23564;48.290;11.460;2023-04-24T12:27:22;13.60;99.90
36322;DHT22;23564;48.290;11.460;2023-04-24T12:29:52;13.60;99.90
36322;DHT22;23564;48.290;11.460;2023-04-24T12:32:18;13.60;1.00
36322;DHT22;23564;48.290;11.460;2023-04-24T12:34:44;13.60;65.80
36322;DHT22;23564;48.290;11.460;2023-04-24T12:37:13;13.70;1.00
36322;DHT22;23564;48.290;11.460;2023-04-24T12:39:38;13.90;1.00
36322;DHT22;23564;48.290;11.460;2023-04-24T12:42:04;13.90;1.00
36322;DHT22;23564;48.290;11.460;2023-04-24T12:44:31;13.60;21.90
36322;DHT22;23564;48.290;11.460;2023-04-24T12:46:57;13.10;99.90
36322;DHT22;23564;48.290;11.460;2023-04-24T12:49:23;13.10;1.00
36322;DHT22;23564;48.290;11.460;2023-04-24T12:51:48;13.20;99.90
36322;DHT22;23564;48.290;11.460;2023-04-24T12:54:14;13.30;99.90
36322;DHT22;23564;48.290;11.460;2023-04-24T12:56:40;13.50;95.70
36322;DHT22;23564;48.290;11.460;2023-04-24T12:59:05;13.70;99.90
36322;DHT22;23564;48.290;11.460;2023-04-24T13:01:31;13.70;77.10
36322;DHT22;23564;48.290;11.460;2023-04-24T13:03:56;13.60;87.20
36322;DHT22;23564;48.290;11.460;2023-04-24T13:06:22;13.60;41.90
36322;DHT22;23564;48.290;11.460;2023-04-24T13:08:47;13.60;96.20
36322;DHT22;23564;48.290;11.460;2023-04-24T13:11:14;13.60;63.90
36322;DHT22;23564;48.290;11.460;2023-04-24T13:13:39;13.60;78.30
36322;DHT22;23564;48.290;11.460;2023-04-24T13:16:05;13.70;1.00
36322;DHT22;23564;48.290;11.460;2023-04-24T13:18:31;13.90;53.40
36322;DHT22;23564;48.290;11.460;2023-04-24T13:20:56;14.10;17.50
36322;DHT22;23564;48.290;11.460;2023-04-24T13:23:22;14.30;1.00
36322;DHT22;23564;48.290;11.460;2023-04-24T13:25:48;14.40;1.00
36322;DHT22;23564;48.290;11.460;2023-04-24T13:28:13;14.30;1.00
36322;DHT22;23564;48.290;11.460;2023-04-24T13:30:39;14.40;1.00
36322;DHT22;23564;48.290;11.460;2023-04-24T13:33:05;14.30;99.90
36322;DHT22;23564;48.290;11.460;2023-04-24T13:35:31;14.40;99.90
36322;DHT22;23564;48.290;11.460;2023-04-24T13:37:57;14.40;99.90
36322;DHT22;23564;48.290;11.460;2023-04-24T13:40:23;14.50;99.90
36322;DHT22;23564;48.290;11.460;2023-04-24T13:42:49;14.40;99.90
36322;DHT22;23564;48.290;11.460;2023-04-24T13:45:15;14.40;99.90
36322;DHT22;23564;48.290;11.460;2023-04-24T13:47:40;14.30;99.90
36322;DHT22;23564;48.290;11.460;2023-04-24T13:50:08;14.10;99.90
36322;DHT22;23564;48.290;11.460;2023-04-24T13:52:34;13.80;99.90
36322;DHT22;23564;48.290;11.460;2023-04-24T13:54:59;13.70;99.90
36322;DHT22;23564;48.290;11.460;2023-04-24T13:57:25;13.60;99.90
36322;DHT22;23564;48.290;11.460;2023-04-24T13:59:51;13.60;99.90
36322;DHT22;23564;48.290;11.460;2023-04-24T14:02:16;13.60;99.90
36322;DHT22;23564;48.290;11.460;2023-04-24T14:04:42;13.70;99.90
36322;DHT22;23564;48.290;11.460;2023-04-24T14:07:07;13.90;99.90
36322;DHT22;23564;48.290;11.460;2023-04-24T14:09:33;14.00;99.90
36322;DHT22;23564;48.290;11.460;2023-04-24T14:11:59;14.00;99.90
36322;DHT22;23564;48.290;11.460;2023-04-24T14:14:27;13.80;99.90
36322;DHT22;23564;48.290;11.460;2023-04-24T14:16:52;14.00;99.90
36322;DHT22;23564;48.290;11.460;2023-04-24T14:19:18;14.20;99.90
36322;DHT22;23564;48.290;11.460;2023-04-24T14:21:43;14.40;99.90
36322;DHT22;23564;48.290;11.460;2023-04-24T14:24:09;14.50;99.90
36322;DHT22;23564;48.290;11.460;2023-04-24T14:26:35;14.50;99.90
36322;DHT22;23564;48.290;11.460;2023-04-24T14:29:00;14.50;99.90
36322;DHT22;23564;48.290;11.460;2023-04-24T14:31:26;14.50;99.90
36322;DHT22;23564;48.290;11.460;2023-04-24T14:33:51;14.30;99.90
36322;DHT22;23564;48.290;11.460;2023-04-24T14:36:17;14.20;99.90
36322;DHT22;23564;48.290;11.460;2023-04-24T14:38:42;14.10;99.90
36322;DHT22;23564;48.290;11.460;2023-04-24T14:41:08;13.90;99.90
36322;DHT22;23564;48.290;11.460;2023-04-24T14:43:35;13.80;99.90
36322;DHT22;23564;48.290;11.460;2023-04-24T14:46:02;13.70;99.90
36322;DHT22;23564;48.290;11.460;2023-04-24T14:48:27;13.60;99.90
36322;DHT22;23564;48.290;11.460;2023-04-24T14:50:53;13.60;99.90
36322;DHT22;23564;48.290;11.460;2023-04-24T14:53:19;13.60;99.90
36322;DHT22;23564;48.290;11.460;2023-04-24T14:55:44;13.60;99.90
36322;DHT22;23564;48.290;11.460;2023-04-24T14:58:10;13.60;99.90
36322;DHT22;23564;48.290;11.460;2023-04-24T15:00:36;13.60;99.90
36322;DHT22;23564;48.290;11.460;2023-04-24T15:03:02;13.50;99.90
36322;DHT22;23564;48.290;11.460;2023-04-24T15:05:27;13.50;99.90
36322;DHT22;23564;48.290;11.460;2023-04-24T15:07:53;13.70;99.90
36322;DHT22;23564;48.290;11.460;2023-04-24T15:10:18;13.90;99.90
36322;DHT22;23564;48.290;11.460;2023-04-24T15:12:47;14.20;99.90
36322;DHT22;23564;48.290;11.460;2023-04-24T15:15:13;14.30;99.90
36322;DHT22;23564;48.290;11.460;2023-04-24T15:17:38;14.30;99.90
36322;DHT22;23564;48.290;11.460;2023-04-24T15:20:05;14.10;99.90
36322;DHT22;23564;48.290;11.460;2023-04-24T15:22:31;14.10;99.90
36322;DHT22;23564;48.290;11.460;2023-04-24T15:24:57;14.10;99.90
36322;DHT22;23564;48.290;11.460;2023-04-24T15:27:23;14.10;99.90